»·PEaware :: N8625C KSBD-KEMT

N8625C :: KSBD-KEMT

FLIGHT INFORMATION

Flight Status: Arrived
Operator: Privately registered:
United States
More flights under this callsign
Pilot: Thiago S. (19132)
Aircraft: CESSNA 182 SKYLANE
(C182)
More flights by this aircraft type
Origin: KSBD San Bernardino Intl
United States
Destination: KEMT El Monte
United States
More flights between these airports :: More routes between these airports
Route: +DCT
File this flight plan on PilotEdge
Remarks:
Altitude:
(Current/Filed)
6,500ft
Speed:
(Current/Filed)
120kts
Departed: 13-May-18 02:24 PM
Arrived: 13-May-18 02:46 PM
Distance/Time
Traveled:
0nm/0:22
Distance/Time
To Go:
Arrived

Flight Plot

Page will automatically refresh every two minutes.


Map Options




Map Legend


Flown Route
Filed Route
Departure Airport
Arrival Airport
Navaid (VOR, NDB)
Fix

Horizontal Profiles

Position Reports

Time Latitude Longitude Heading Altitude Ground
Speed
13-May-18 14:05 34.105125 -117.245634 59 1160ft 0kts
13-May-18 14:06 34.105125 -117.245634 59 1160ft 0kts
13-May-18 14:07 34.105125 -117.245634 59 1160ft 0kts
13-May-18 14:08 34.105125 -117.245634 59 1160ft 0kts
13-May-18 14:09 34.105125 -117.245634 59 1160ft 0kts
13-May-18 14:10 34.105125 -117.245634 59 1160ft 0kts
13-May-18 14:11 34.105125 -117.245634 59 1160ft 0kts
13-May-18 14:12 34.105125 -117.245634 59 1160ft 0kts
13-May-18 14:13 34.105125 -117.245634 59 1160ft 0kts
13-May-18 14:14 34.105125 -117.245634 59 1160ft 0kts
13-May-18 14:15 34.105126 -117.245630 60 1160ft 0kts
13-May-18 14:16 34.105146 -117.245588 60 1160ft 1kts
13-May-18 14:17 34.104092 -117.243017 110 1160ft 12kts
13-May-18 14:18 34.102288 -117.236656 106 1160ft 22kts
13-May-18 14:19 34.100893 -117.231396 104 1160ft 10kts
13-May-18 14:20 34.100302 -117.225615 69 1160ft 26kts
13-May-18 14:21 34.101576 -117.220360 158 1160ft 7kts
13-May-18 14:22 34.100579 -117.220002 187 1160ft 0kts
13-May-18 14:23 34.099775 -117.219901 244 1160ft 4kts
13-May-18 14:24 34.094969 -117.233162 243 1522ft 79kts
13-May-18 14:25 34.087973 -117.259942 253 2241ft 91kts
13-May-18 14:26 34.085701 -117.293552 264 2561ft 112kts
13-May-18 14:27 34.083684 -117.332845 264 2621ft 120kts
13-May-18 14:28 34.081757 -117.372828 264 2797ft 113kts
13-May-18 14:29 34.080183 -117.410242 264 3135ft 112kts
13-May-18 14:30 34.077906 -117.448833 264 3423ft 116kts
13-May-18 14:31 34.077405 -117.487779 271 3719ft 116kts
13-May-18 14:32 34.078403 -117.526918 271 3981ft 116kts
13-May-18 14:33 34.079419 -117.565123 271 4335ft 112kts
13-May-18 14:34 34.080460 -117.604268 271 4536ft 123kts
13-May-18 14:35 34.081585 -117.647227 271 4500ft 130kts
13-May-18 14:36 34.082623 -117.690639 270 4504ft 129kts
13-May-18 14:37 34.082598 -117.736168 270 4202ft 141kts
13-May-18 14:38 34.082563 -117.783722 270 3799ft 144kts
13-May-18 14:39 34.082529 -117.831650 270 3351ft 142kts
13-May-18 14:40 34.081843 -117.879459 268 2898ft 143kts
13-May-18 14:41 34.081120 -117.927258 268 2427ft 142kts
13-May-18 14:42 34.080403 -117.974656 268 2024ft 141kts
13-May-18 14:43 34.086174 -118.010253 7 1470ft 94kts
13-May-18 14:44 34.101939 -118.020397 283 776ft 71kts
13-May-18 14:45 34.088969 -118.033145 204 299ft 57kts
13-May-18 14:46 34.081636 -118.037328 203 299ft 12kts
13-May-18 14:47 34.080976 -118.037145 100 299ft 0kts
13-May-18 14:48 34.082425 -118.036149 24 299ft 4kts
13-May-18 14:49 34.082590 -118.034851 321 299ft 0kts
13-May-18 14:50 34.082603 -118.034874 294 299ft 0kts
13-May-18 14:51 34.082603 -118.034874 294 299ft 0kts
13-May-18 14:52 34.082603 -118.034874 294 299ft 0kts
13-May-18 14:53 34.082603 -118.034874 294 299ft 0kts
13-May-18 14:54 34.105125 -117.245634 59 1160ft 0kts
13-May-18 14:55 34.105127 -117.245628 60 1160ft 0kts
13-May-18 14:56 34.105130 -117.245623 60 1160ft 0kts
13-May-18 14:57 34.103139 -117.239791 103 1160ft 45kts
13-May-18 14:58 34.100361 -117.225505 75 1160ft 47kts
13-May-18 14:59 34.100542 -117.219988 164 1160ft 0kts
13-May-18 15:00 34.096380 -117.231185 250 1176ft 108kts

Navigation Log

Ident Type
Flight plan parsing failed, navigation log unavailable